sensor_id;sensor_type;location;lat;lon;timestamp;pressure;altitude;pressure_sealevel;temperature;humidity
74474;BME280;62922;-6.168;106.796;2022-08-21T00:01:12;100978.50;;;30.93;56.05
74474;BME280;62922;-6.168;106.796;2022-08-21T00:03:40;100989.63;;;30.98;56.33
74474;BME280;62922;-6.168;106.796;2022-08-21T00:06:07;100969.88;;;30.90;56.29
74474;BME280;62922;-6.168;106.796;2022-08-21T00:08:33;100940.97;;;30.67;56.25
74474;BME280;62922;-6.168;106.796;2022-08-21T00:11:00;100960.53;;;30.81;56.19
74474;BME280;62922;-6.168;106.796;2022-08-21T00:13:27;100947.75;;;30.66;56.30
74474;BME280;62922;-6.168;106.796;2022-08-21T00:15:56;100984.13;;;30.93;56.38
74474;BME280;62922;-6.168;106.796;2022-08-21T00:18:22;100967.34;;;30.80;56.54
74474;BME280;62922;-6.168;106.796;2022-08-21T00:20:49;100988.47;;;30.91;56.10
74474;BME280;62922;-6.168;106.796;2022-08-21T00:23:15;100984.78;;;30.82;56.24
74474;BME280;62922;-6.168;106.796;2022-08-21T00:25:42;100994.75;;;30.88;56.13
74474;BME280;62922;-6.168;106.796;2022-08-21T00:28:09;100916.38;;;30.42;56.58
74474;BME280;62922;-6.168;106.796;2022-08-21T00:30:37;100969.16;;;30.67;56.33
74474;BME280;62922;-6.168;106.796;2022-08-21T00:33:03;101019.63;;;30.94;56.33
74474;BME280;62922;-6.168;106.796;2022-08-21T00:35:35;101026.09;;;30.95;56.27
74474;BME280;62922;-6.168;106.796;2022-08-21T00:38:03;100952.69;;;30.52;56.02
74474;BME280;62922;-6.168;106.796;2022-08-21T00:40:37;101032.53;;;30.95;56.00
74474;BME280;62922;-6.168;106.796;2022-08-21T00:43:06;101000.47;;;30.74;55.43
74474;BME280;62922;-6.168;106.796;2022-08-21T00:45:34;101012.13;;;30.81;55.76
74474;BME280;62922;-6.168;106.796;2022-08-21T00:48:01;101033.38;;;30.96;55.79
74474;BME280;62922;-6.168;106.796;2022-08-21T00:50:33;101044.00;;;30.99;56.11
74474;BME280;62922;-6.168;106.796;2022-08-21T00:53:02;101050.47;;;30.99;56.09
74474;BME280;62922;-6.168;106.796;2022-08-21T00:55:29;101037.19;;;30.91;56.27
74474;BME280;62922;-6.168;106.796;2022-08-21T00:57:59;101061.22;;;30.97;55.99
74474;BME280;62922;-6.168;106.796;2022-08-21T01:00:30;100965.75;;;30.39;55.84
74474;BME280;62922;-6.168;106.796;2022-08-21T01:03:02;101053.13;;;30.96;55.66
74474;BME280;62922;-6.168;106.796;2022-08-21T01:05:33;101053.94;;;30.96;55.92
74474;BME280;62922;-6.168;106.796;2022-08-21T01:07:59;101017.84;;;30.67;56.54
74474;BME280;62922;-6.168;106.796;2022-08-21T01:10:26;101039.84;;;30.88;56.31
74474;BME280;62922;-6.168;106.796;2022-08-21T01:12:55;101065.72;;;30.98;56.31
74474;BME280;62922;-6.168;106.796;2022-08-21T01:15:26;101051.59;;;30.90;56.60
74474;BME280;62922;-6.168;106.796;2022-08-21T01:17:56;101073.00;;;30.99;56.49
74474;BME280;62922;-6.168;106.796;2022-08-21T01:20:22;101062.75;;;30.95;56.04
74474;BME280;62922;-6.168;106.796;2022-08-21T01:22:49;101060.72;;;30.95;56.32
74474;BME280;62922;-6.168;106.796;2022-08-21T01:25:16;100987.47;;;30.47;56.74
74474;BME280;62922;-6.168;106.796;2022-08-21T01:27:45;101090.75;;;31.00;56.38
74474;BME280;62922;-6.168;106.796;2022-08-21T01:30:20;101081.81;;;30.98;56.49
74474;BME280;62922;-6.168;106.796;2022-08-21T01:32:48;101022.69;;;30.67;56.87
74474;BME280;62922;-6.168;106.796;2022-08-21T01:35:17;101070.53;;;30.98;56.67
74474;BME280;62922;-6.168;106.796;2022-08-21T01:37:44;101079.84;;;31.07;56.59
74474;BME280;62922;-6.168;106.796;2022-08-21T01:40:12;101071.53;;;31.02;56.67
74474;BME280;62922;-6.168;106.796;2022-08-21T01:42:40;101076.19;;;31.06;56.64
74474;BME280;62922;-6.168;106.796;2022-08-21T01:45:08;101070.03;;;31.04;56.33
74474;BME280;62922;-6.168;106.796;2022-08-21T01:47:34;101074.88;;;31.04;56.41
74474;BME280;62922;-6.168;106.796;2022-08-21T01:50:05;101026.00;;;30.78;56.19
74474;BME280;62922;-6.168;106.796;2022-08-21T01:52:31;101051.75;;;30.93;56.44
74474;BME280;62922;-6.168;106.796;2022-08-21T01:54:58;101071.22;;;31.12;56.53
74474;BME280;62922;-6.168;106.796;2022-08-21T01:57:25;101027.75;;;30.87;56.00
74474;BME280;62922;-6.168;106.796;2022-08-21T01:59:54;101058.63;;;31.09;56.57
74474;BME280;62922;-6.168;106.796;2022-08-21T02:02:20;101025.94;;;30.91;56.99
74474;BME280;62922;-6.168;106.796;2022-08-21T02:04:47;100990.34;;;30.73;57.17
74474;BME280;62922;-6.168;106.796;2022-08-21T02:07:15;101031.41;;;30.96;57.00
74474;BME280;62922;-6.168;106.796;2022-08-21T02:09:42;101061.97;;;31.20;56.22
74474;BME280;62922;-6.168;106.796;2022-08-21T02:12:09;101050.69;;;31.20;55.83
74474;BME280;62922;-6.168;106.796;2022-08-21T02:14:36;101046.19;;;31.19;56.20
74474;BME280;62922;-6.168;106.796;2022-08-21T02:17:05;101016.00;;;31.02;56.27
74474;BME280;62922;-6.168;106.796;2022-08-21T02:19:31;101052.19;;;31.26;56.72
74474;BME280;62922;-6.168;106.796;2022-08-21T02:21:57;101011.50;;;31.10;55.84
74474;BME280;62922;-6.168;106.796;2022-08-21T02:24:24;101058.16;;;31.33;56.01
74474;BME280;62922;-6.168;106.796;2022-08-21T02:26:50;101009.03;;;31.08;56.98
74474;BME280;62922;-6.168;106.796;2022-08-21T02:29:19;101042.22;;;31.28;57.89
74474;BME280;62922;-6.168;106.796;2022-08-21T02:31:46;101042.09;;;31.33;57.03
74474;BME280;62922;-6.168;106.796;2022-08-21T02:34:15;100932.88;;;30.74;56.47
74474;BME280;62922;-6.168;106.796;2022-08-21T02:36:41;101028.78;;;31.34;55.60
74474;BME280;62922;-6.168;106.796;2022-08-21T02:39:07;101041.44;;;31.45;55.75
74474;BME280;62922;-6.168;106.796;2022-08-21T02:41:34;101029.31;;;31.44;55.36
74474;BME280;62922;-6.168;106.796;2022-08-21T02:44:02;100993.97;;;31.21;55.95
74474;BME280;62922;-6.168;106.796;2022-08-21T02:46:28;100973.41;;;31.29;55.72
74474;BME280;62922;-6.168;106.796;2022-08-21T02:48:56;101029.66;;;31.60;55.93
74474;BME280;62922;-6.168;106.796;2022-08-21T02:51:22;101001.31;;;31.48;56.30
74474;BME280;62922;-6.168;106.796;2022-08-21T02:53:49;101019.88;;;31.57;55.94
74474;BME280;62922;-6.168;106.796;2022-08-21T02:56:18;100967.94;;;31.33;56.18
74474;BME280;62922;-6.168;106.796;2022-08-21T02:58:49;100989.50;;;31.37;56.27
74474;BME280;62922;-6.168;106.796;2022-08-21T03:01:17;100946.88;;;31.22;55.91
74474;BME280;62922;-6.168;106.796;2022-08-21T03:03:46;101027.47;;;31.74;55.43
74474;BME280;62922;-6.168;106.796;2022-08-21T03:06:17;101024.81;;;31.78;55.45
74474;BME280;62922;-6.168;106.796;2022-08-21T03:08:46;101029.31;;;31.79;54.61
74474;BME280;62922;-6.168;106.796;2022-08-21T03:11:15;101019.34;;;31.81;54.54
74474;BME280;62922;-6.168;106.796;2022-08-21T03:13:42;101016.03;;;31.79;54.85
74474;BME280;62922;-6.168;106.796;2022-08-21T03:16:11;100984.22;;;31.53;55.29
74474;BME280;62922;-6.168;106.796;2022-08-21T03:18:38;100975.41;;;31.46;57.30
74474;BME280;62922;-6.168;106.796;2022-08-21T03:21:05;100994.16;;;31.59;56.96
74474;BME280;62922;-6.168;106.796;2022-08-21T03:23:31;100953.00;;;31.32;56.80
74474;BME280;62922;-6.168;106.796;2022-08-21T03:25:58;100994.13;;;31.76;56.51
74474;BME280;62922;-6.168;106.796;2022-08-21T03:28:24;100988.81;;;31.75;56.79
74474;BME280;62922;-6.168;106.796;2022-08-21T03:30:52;100948.00;;;31.63;56.04
74474;BME280;62922;-6.168;106.796;2022-08-21T03:33:19;100987.31;;;31.94;55.95
74474;BME280;62922;-6.168;106.796;2022-08-21T03:35:49;100950.81;;;31.81;55.25
74474;BME280;62922;-6.168;106.796;2022-08-21T03:38:20;100942.97;;;31.86;55.57
74474;BME280;62922;-6.168;106.796;2022-08-21T03:40:47;100950.63;;;31.86;55.01
74474;BME280;62922;-6.168;106.796;2022-08-21T03:43:13;100949.63;;;31.99;54.64
74474;BME280;62922;-6.168;106.796;2022-08-21T03:45:40;100940.00;;;31.91;54.58
74474;BME280;62922;-6.168;106.796;2022-08-21T03:48:09;100945.47;;;31.96;54.69
74474;BME280;62922;-6.168;106.796;2022-08-21T03:50:38;100923.72;;;31.88;54.58
74474;BME280;62922;-6.168;106.796;2022-08-21T03:53:05;100937.63;;;32.02;54.48
74474;BME280;62922;-6.168;106.796;2022-08-21T03:55:32;100958.88;;;32.08;56.21
74474;BME280;62922;-6.168;106.796;2022-08-21T03:57:58;100887.78;;;31.59;57.03
74474;BME280;62922;-6.168;106.796;2022-08-21T04:00:25;100953.38;;;32.11;55.59
74474;BME280;62922;-6.168;106.796;2022-08-21T04:02:52;100943.28;;;32.10;55.32
74474;BME280;62922;-6.168;106.796;2022-08-21T04:05:19;100940.09;;;32.12;56.54
74474;BME280;62922;-6.168;106.796;2022-08-21T04:07:56;100879.94;;;31.74;56.16
74474;BME280;62922;-6.168;106.796;2022-08-21T04:10:24;100937.13;;;32.08;55.66
74474;BME280;62922;-6.168;106.796;2022-08-21T04:12:52;100887.56;;;31.90;56.15
74474;BME280;62922;-6.168;106.796;2022-08-21T04:15:20;100920.69;;;32.10;54.67
74474;BME280;62922;-6.168;106.796;2022-08-21T04:17:47;100940.34;;;32.27;54.75
74474;BME280;62922;-6.168;106.796;2022-08-21T04:20:15;100899.78;;;32.03;54.45
74474;BME280;62922;-6.168;106.796;2022-08-21T04:22:42;100882.34;;;32.01;55.99
74474;BME280;62922;-6.168;106.796;2022-08-21T04:25:10;100923.47;;;32.19;57.07
74474;BME280;62922;-6.168;106.796;2022-08-21T04:27:37;100914.16;;;32.18;56.58
74474;BME280;62922;-6.168;106.796;2022-08-21T04:30:05;100896.72;;;32.16;56.30
74474;BME280;62922;-6.168;106.796;2022-08-21T04:32:32;100883.00;;;32.06;56.47
74474;BME280;62922;-6.168;106.796;2022-08-21T04:35:02;100891.50;;;32.27;55.34
74474;BME280;62922;-6.168;106.796;2022-08-21T04:37:30;100848.34;;;31.97;55.88
74474;BME280;62922;-6.168;106.796;2022-08-21T04:39:56;100886.06;;;32.22;55.97
74474;BME280;62922;-6.168;106.796;2022-08-21T04:42:25;100890.97;;;32.33;55.04
74474;BME280;62922;-6.168;106.796;2022-08-21T04:44:52;100856.41;;;32.07;56.40
74474;BME280;62922;-6.168;106.796;2022-08-21T04:47:18;100869.31;;;32.17;55.08
74474;BME280;62922;-6.168;106.796;2022-08-21T04:49:47;100878.22;;;32.27;56.22
74474;BME280;62922;-6.168;106.796;2022-08-21T04:52:16;100850.19;;;32.22;54.93
74474;BME280;62922;-6.168;106.796;2022-08-21T04:54:44;100831.91;;;32.20;54.34
74474;BME280;62922;-6.168;106.796;2022-08-21T04:57:12;100870.66;;;32.48;53.78
74474;BME280;62922;-6.168;106.796;2022-08-21T04:59:46;100886.78;;;32.48;55.12
74474;BME280;62922;-6.168;106.796;2022-08-21T05:02:13;100877.81;;;32.46;54.45
74474;BME280;62922;-6.168;106.796;2022-08-21T05:04:47;100811.63;;;32.26;54.66
74474;BME280;62922;-6.168;106.796;2022-08-21T05:07:21;100830.13;;;32.44;53.34
74474;BME280;62922;-6.168;106.796;2022-08-21T05:09:48;100853.03;;;32.72;53.12
74474;BME280;62922;-6.168;106.796;2022-08-21T05:12:20;100859.16;;;32.74;52.86
74474;BME280;62922;-6.168;106.796;2022-08-21T05:14:47;100857.78;;;32.80;52.71
74474;BME280;62922;-6.168;106.796;2022-08-21T05:17:14;100789.28;;;32.42;52.82
74474;BME280;62922;-6.168;106.796;2022-08-21T05:19:40;100832.81;;;32.82;51.83
74474;BME280;62922;-6.168;106.796;2022-08-21T05:22:09;100821.50;;;32.82;52.12
74474;BME280;62922;-6.168;106.796;2022-08-21T05:24:35;100823.78;;;32.89;51.55
74474;BME280;62922;-6.168;106.796;2022-08-21T05:27:02;100767.44;;;32.51;51.41
74474;BME280;62922;-6.168;106.796;2022-08-21T05:29:29;100824.47;;;32.86;52.90
74474;BME280;62922;-6.168;106.796;2022-08-21T05:31:55;100810.34;;;32.86;52.65
74474;BME280;62922;-6.168;106.796;2022-08-21T05:34:23;100811.66;;;32.88;52.68
74474;BME280;62922;-6.168;106.796;2022-08-21T05:36:53;100806.34;;;32.87;52.47
74474;BME280;62922;-6.168;106.796;2022-08-21T05:39:19;100782.16;;;32.77;52.56
74474;BME280;62922;-6.168;106.796;2022-08-21T05:41:45;100793.34;;;32.94;52.13
74474;BME280;62922;-6.168;106.796;2022-08-21T05:44:14;100757.31;;;32.71;52.30
74474;BME280;62922;-6.168;106.796;2022-08-21T05:46:41;100780.50;;;32.97;52.49
74474;BME280;62922;-6.168;106.796;2022-08-21T05:49:07;100777.38;;;32.90;53.17
74474;BME280;62922;-6.168;106.796;2022-08-21T05:51:36;100754.97;;;32.73;53.02
74474;BME280;62922;-6.168;106.796;2022-08-21T05:54:03;100780.97;;;32.99;52.39
74474;BME280;62922;-6.168;106.796;2022-08-21T05:56:29;100748.03;;;32.82;54.26
74474;BME280;62922;-6.168;106.796;2022-08-21T05:58:55;100751.91;;;32.78;53.76
74474;BME280;62922;-6.168;106.796;2022-08-21T06:01:21;100754.75;;;32.90;53.77
74474;BME280;62922;-6.168;106.796;2022-08-21T06:03:48;100760.78;;;32.88;54.32
74474;BME280;62922;-6.168;106.796;2022-08-21T06:06:14;100743.91;;;32.80;54.72
74474;BME280;62922;-6.168;106.796;2022-08-21T06:08:41;100743.44;;;32.78;55.51
74474;BME280;62922;-6.168;106.796;2022-08-21T06:11:08;100702.16;;;32.65;54.66
74474;BME280;62922;-6.168;106.796;2022-08-21T06:16:24;100694.13;;;32.87;53.62
74474;BME280;62922;-6.168;106.796;2022-08-21T06:18:51;100713.16;;;33.11;52.74
74474;BME280;62922;-6.168;106.796;2022-08-21T06:21:18;100660.06;;;32.84;52.28
74474;BME280;62922;-6.168;106.796;2022-08-21T06:23:44;100701.03;;;33.10;52.84
74474;BME280;62922;-6.168;106.796;2022-08-21T06:26:13;100702.47;;;33.16;52.44
74474;BME280;62922;-6.168;106.796;2022-08-21T06:28:40;100691.81;;;33.13;52.56
74474;BME280;62922;-6.168;106.796;2022-08-21T06:31:18;100698.19;;;33.10;53.60
74474;BME280;62922;-6.168;106.796;2022-08-21T06:33:45;100661.13;;;32.91;53.16
74474;BME280;62922;-6.168;106.796;2022-08-21T06:36:12;100688.66;;;33.15;53.46
74474;BME280;62922;-6.168;106.796;2022-08-21T06:38:39;100690.06;;;33.21;53.13
74474;BME280;62922;-6.168;106.796;2022-08-21T06:41:08;100683.47;;;33.17;52.74
74474;BME280;62922;-6.168;106.796;2022-08-21T06:43:35;100680.75;;;33.20;52.85
74474;BME280;62922;-6.168;106.796;2022-08-21T06:46:01;100641.50;;;32.95;53.47
74474;BME280;62922;-6.168;106.796;2022-08-21T06:48:28;100660.63;;;33.22;52.28
74474;BME280;62922;-6.168;106.796;2022-08-21T06:50:56;100659.69;;;33.18;52.64
74474;BME280;62922;-6.168;106.796;2022-08-21T06:53:22;100637.63;;;33.11;52.42
74474;BME280;62922;-6.168;106.796;2022-08-21T06:55:49;100658.72;;;33.14;53.11
74474;BME280;62922;-6.168;106.796;2022-08-21T06:58:15;100645.16;;;32.95;53.18
74474;BME280;62922;-6.168;106.796;2022-08-21T07:00:45;100660.00;;;33.04;53.48
74474;BME280;62922;-6.168;106.796;2022-08-21T07:03:24;100672.16;;;33.05;53.25
74474;BME280;62922;-6.168;106.796;2022-08-21T07:05:51;100588.31;;;32.64;53.25
74474;BME280;62922;-6.168;106.796;2022-08-21T07:08:18;100668.66;;;33.20;52.83
74474;BME280;62922;-6.168;106.796;2022-08-21T07:10:44;100638.94;;;33.02;52.83
74474;BME280;62922;-6.168;106.796;2022-08-21T07:13:11;100578.56;;;32.62;52.59
74474;BME280;62922;-6.168;106.796;2022-08-21T07:15:38;100641.16;;;32.96;53.05
74474;BME280;62922;-6.168;106.796;2022-08-21T07:18:04;100594.69;;;32.73;53.13
74474;BME280;62922;-6.168;106.796;2022-08-21T07:20:31;100637.72;;;32.91;52.57
74474;BME280;62922;-6.168;106.796;2022-08-21T07:23:01;100647.91;;;33.04;53.55
74474;BME280;62922;-6.168;106.796;2022-08-21T07:25:34;100637.16;;;33.09;52.90
74474;BME280;62922;-6.168;106.796;2022-08-21T07:28:00;100597.19;;;32.87;52.60
74474;BME280;62922;-6.168;106.796;2022-08-21T07:30:32;100644.72;;;33.05;52.39
74474;BME280;62922;-6.168;106.796;2022-08-21T07:32:59;100643.03;;;33.04;53.68
74474;BME280;62922;-6.168;106.796;2022-08-21T07:35:25;100627.50;;;32.98;52.24
74474;BME280;62922;-6.168;106.796;2022-08-21T07:37:53;100570.63;;;32.55;52.86
74474;BME280;62922;-6.168;106.796;2022-08-21T07:40:20;100648.34;;;32.94;52.42
74474;BME280;62922;-6.168;106.796;2022-08-21T07:42:49;100606.94;;;32.65;52.97
74474;BME280;62922;-6.168;106.796;2022-08-21T07:45:19;100651.06;;;33.02;53.41
74474;BME280;62922;-6.168;106.796;2022-08-21T07:47:47;100658.47;;;32.95;53.34
74474;BME280;62922;-6.168;106.796;2022-08-21T07:50:16;100617.28;;;32.61;53.69
74474;BME280;62922;-6.168;106.796;2022-08-21T07:52:42;100647.09;;;32.83;53.47
74474;BME280;62922;-6.168;106.796;2022-08-21T07:55:15;100669.28;;;32.93;53.96
74474;BME280;62922;-6.168;106.796;2022-08-21T07:57:45;100675.09;;;32.96;53.90
74474;BME280;62922;-6.168;106.796;2022-08-21T08:00:19;100659.81;;;32.77;54.18
74474;BME280;62922;-6.168;106.796;2022-08-21T08:02:47;100682.94;;;32.91;54.02
74474;BME280;62922;-6.168;106.796;2022-08-21T08:05:17;100690.22;;;32.92;53.96
74474;BME280;62922;-6.168;106.796;2022-08-21T08:07:43;100677.50;;;32.86;54.67
74474;BME280;62922;-6.168;106.796;2022-08-21T08:10:11;100687.63;;;32.87;54.78
74474;BME280;62922;-6.168;106.796;2022-08-21T08:12:40;100704.59;;;32.87;54.98
74474;BME280;62922;-6.168;106.796;2022-08-21T08:15:12;100688.91;;;32.89;54.84
74474;BME280;62922;-6.168;106.796;2022-08-21T08:17:39;100670.06;;;32.81;55.07
74474;BME280;62922;-6.168;106.796;2022-08-21T08:20:09;100669.84;;;32.86;55.39
74474;BME280;62922;-6.168;106.796;2022-08-21T08:22:37;100668.88;;;32.82;55.40
74474;BME280;62922;-6.168;106.796;2022-08-21T08:25:06;100668.09;;;32.82;55.65
74474;BME280;62922;-6.168;106.796;2022-08-21T08:27:32;100642.59;;;32.70;55.57
74474;BME280;62922;-6.168;106.796;2022-08-21T08:30:01;100632.38;;;32.65;54.68
74474;BME280;62922;-6.168;106.796;2022-08-21T08:32:28;100634.00;;;32.78;54.99
74474;BME280;62922;-6.168;106.796;2022-08-21T08:34:54;100617.28;;;32.61;55.24
74474;BME280;62922;-6.168;106.796;2022-08-21T08:37:21;100640.03;;;32.77;54.72
74474;BME280;62922;-6.168;106.796;2022-08-21T08:39:47;100644.16;;;32.79;55.05
74474;BME280;62922;-6.168;106.796;2022-08-21T08:44:47;100637.00;;;32.82;54.63
74474;BME280;62922;-6.168;106.796;2022-08-21T08:47:17;100633.09;;;32.86;54.79
74474;BME280;62922;-6.168;106.796;2022-08-21T08:52:35;100629.31;;;32.82;54.08
74474;BME280;62922;-6.168;106.796;2022-08-21T08:55:06;100593.47;;;32.62;54.19
74474;BME280;62922;-6.168;106.796;2022-08-21T08:57:34;100636.41;;;32.88;54.12
74474;BME280;62922;-6.168;106.796;2022-08-21T09:00:08;100645.72;;;32.89;54.43
74474;BME280;62922;-6.168;106.796;2022-08-21T09:02:42;100585.00;;;32.62;54.33
74474;BME280;62922;-6.168;106.796;2022-08-21T09:05:24;100646.53;;;32.89;54.69
74474;BME280;62922;-6.168;106.796;2022-08-21T09:10:24;100654.41;;;32.84;54.39
74474;BME280;62922;-6.168;106.796;2022-08-21T09:24:13;100588.66;;;32.30;54.68
74474;BME280;62922;-6.168;106.796;2022-08-21T09:26:52;100677.84;;;32.84;54.66
74474;BME280;62922;-6.168;106.796;2022-08-21T09:29:23;100671.72;;;32.82;55.40
74474;BME280;62922;-6.168;106.796;2022-08-21T09:31:51;100629.13;;;32.54;55.03
74474;BME280;62922;-6.168;106.796;2022-08-21T09:34:27;100641.09;;;32.72;54.74
74474;BME280;62922;-6.168;106.796;2022-08-21T09:36:57;100665.69;;;32.84;55.05
74474;BME280;62922;-6.168;106.796;2022-08-21T09:42:04;100670.63;;;32.75;55.09
74474;BME280;62922;-6.168;106.796;2022-08-21T09:44:34;100668.16;;;32.73;55.02
74474;BME280;62922;-6.168;106.796;2022-08-21T09:47:11;100622.28;;;32.43;55.26
74474;BME280;62922;-6.168;106.796;2022-08-21T09:49:41;100677.00;;;32.72;55.17
74474;BME280;62922;-6.168;106.796;2022-08-21T09:52:28;100679.47;;;32.73;55.32
74474;BME280;62922;-6.168;106.796;2022-08-21T09:54:55;100642.03;;;32.43;55.44
74474;BME280;62922;-6.168;106.796;2022-08-21T09:57:28;100695.31;;;32.66;56.26
74474;BME280;62922;-6.168;106.796;2022-08-21T10:02:50;100688.59;;;32.58;56.01
74474;BME280;62922;-6.168;106.796;2022-08-21T10:07:44;100679.19;;;32.54;56.18
74474;BME280;62922;-6.168;106.796;2022-08-21T10:10:19;100685.16;;;32.52;56.24
74474;BME280;62922;-6.168;106.796;2022-08-21T10:12:49;100707.81;;;32.65;55.84
74474;BME280;62922;-6.168;106.796;2022-08-21T10:21:48;100715.56;;;32.55;56.68
74474;BME280;62922;-6.168;106.796;2022-08-21T10:24:12;100624.47;;;31.76;56.65
74474;BME280;62922;-6.168;106.796;2022-08-21T10:34:35;100750.59;;;32.54;56.74
74474;BME280;62922;-6.168;106.796;2022-08-21T10:53:06;100755.19;;;32.47;57.08
74474;BME280;62922;-6.168;106.796;2022-08-21T10:55:52;100765.53;;;32.43;56.77
74474;BME280;62922;-6.168;106.796;2022-08-21T11:00:56;100782.31;;;32.39;57.39
74474;BME280;62922;-6.168;106.796;2022-08-21T11:03:41;100787.94;;;32.39;58.09
74474;BME280;62922;-6.168;106.796;2022-08-21T11:06:19;100802.72;;;32.36;58.84
74474;BME280;62922;-6.168;106.796;2022-08-21T11:08:53;100678.00;;;31.64;57.88
74474;BME280;62922;-6.168;106.796;2022-08-21T11:11:36;100749.00;;;32.24;59.03
74474;BME280;62922;-6.168;106.796;2022-08-21T11:14:24;100799.38;;;32.64;58.47
74474;BME280;62922;-6.168;106.796;2022-08-21T11:17:03;100773.53;;;32.32;58.60
74474;BME280;62922;-6.168;106.796;2022-08-21T11:24:56;100717.88;;;31.83;58.00
74474;BME280;62922;-6.168;106.796;2022-08-21T11:27:32;100822.84;;;32.64;59.03
74474;BME280;62922;-6.168;106.796;2022-08-21T11:30:00;100826.41;;;32.73;59.26
74474;BME280;62922;-6.168;106.796;2022-08-21T11:37:53;100850.88;;;32.48;58.84
74474;BME280;62922;-6.168;106.796;2022-08-21T11:45:54;100829.78;;;32.17;59.18
74474;BME280;62922;-6.168;106.796;2022-08-21T11:51:05;100872.31;;;32.49;59.13
74474;BME280;62922;-6.168;106.796;2022-08-21T11:53:44;100844.75;;;32.38;59.47
74474;BME280;62922;-6.168;106.796;2022-08-21T11:56:24;100878.28;;;32.48;58.87
74474;BME280;62922;-6.168;106.796;2022-08-21T11:59:16;100857.78;;;32.30;59.08
74474;BME280;62922;-6.168;106.796;2022-08-21T12:01:43;100890.28;;;32.45;59.33
74474;BME280;62922;-6.168;106.796;2022-08-21T12:04:32;100885.81;;;32.35;59.55
74474;BME280;62922;-6.168;106.796;2022-08-21T12:07:15;100908.22;;;32.40;59.55
74474;BME280;62922;-6.168;106.796;2022-08-21T12:09:53;100923.84;;;32.38;59.51
74474;BME280;62922;-6.168;106.796;2022-08-21T12:12:29;100918.03;;;32.34;59.15
74474;BME280;62922;-6.168;106.796;2022-08-21T12:18:05;100922.88;;;32.34;58.58
74474;BME280;62922;-6.168;106.796;2022-08-21T12:20:40;100871.22;;;32.04;58.53
74474;BME280;62922;-6.168;106.796;2022-08-21T12:28:14;100915.44;;;31.92;58.54
74474;BME280;62922;-6.168;106.796;2022-08-21T12:30:44;100954.22;;;32.12;58.67
74474;BME280;62922;-6.168;106.796;2022-08-21T12:36:15;100970.84;;;32.05;58.65
74474;BME280;62922;-6.168;106.796;2022-08-21T12:39:01;100969.03;;;32.00;58.26
74474;BME280;62922;-6.168;106.796;2022-08-21T12:41:33;100893.44;;;31.51;58.87
74474;BME280;62922;-6.168;106.796;2022-08-21T12:44:03;100987.59;;;32.01;58.86
74474;BME280;62922;-6.168;106.796;2022-08-21T12:49:31;101002.75;;;31.88;59.32
74474;BME280;62922;-6.168;106.796;2022-08-21T12:52:06;100930.28;;;31.46;59.04
74474;BME280;62922;-6.168;106.796;2022-08-21T12:54:41;100957.13;;;31.69;59.16
74474;BME280;62922;-6.168;106.796;2022-08-21T12:57:09;100965.94;;;31.68;59.58
74474;BME280;62922;-6.168;106.796;2022-08-21T12:59:43;100957.81;;;31.66;59.38
74474;BME280;62922;-6.168;106.796;2022-08-21T13:02:19;101013.88;;;31.93;59.36
74474;BME280;62922;-6.168;106.796;2022-08-21T13:04:48;101026.97;;;31.98;59.47
74474;BME280;62922;-6.168;106.796;2022-08-21T13:07:22;101024.84;;;31.95;59.11
74474;BME280;62922;-6.168;106.796;2022-08-21T13:12:31;100947.38;;;31.49;58.95
74474;BME280;62922;-6.168;106.796;2022-08-21T13:15:03;101038.09;;;31.94;58.07
74474;BME280;62922;-6.168;106.796;2022-08-21T13:17:34;101034.78;;;31.84;57.94
74474;BME280;62922;-6.168;106.796;2022-08-21T13:20:07;101009.72;;;31.65;57.79
74474;BME280;62922;-6.168;106.796;2022-08-21T13:22:42;101033.63;;;31.85;57.83
74474;BME280;62922;-6.168;106.796;2022-08-21T13:25:12;101021.34;;;31.72;57.67
74474;BME280;62922;-6.168;106.796;2022-08-21T13:27:40;101050.91;;;31.92;57.93
74474;BME280;62922;-6.168;106.796;2022-08-21T13:32:37;101043.28;;;31.75;57.52
74474;BME280;62922;-6.168;106.796;2022-08-21T13:35:18;101051.38;;;31.85;57.69
74474;BME280;62922;-6.168;106.796;2022-08-21T13:37:47;101033.28;;;31.78;57.29
74474;BME280;62922;-6.168;106.796;2022-08-21T13:40:16;101016.41;;;31.60;57.75
74474;BME280;62922;-6.168;106.796;2022-08-21T13:42:46;101062.03;;;31.88;58.44
74474;BME280;62922;-6.168;106.796;2022-08-21T13:45:18;101035.44;;;31.72;58.69
74474;BME280;62922;-6.168;106.796;2022-08-21T13:47:53;101060.69;;;31.86;58.27
74474;BME280;62922;-6.168;106.796;2022-08-21T13:50:22;101022.19;;;31.55;58.48
74474;BME280;62922;-6.168;106.796;2022-08-21T13:52:59;100980.34;;;31.32;58.34
74474;BME280;62922;-6.168;106.796;2022-08-21T13:55:48;101051.56;;;31.72;58.29
74474;BME280;62922;-6.168;106.796;2022-08-21T14:00:52;101075.97;;;31.85;57.67
74474;BME280;62922;-6.168;106.796;2022-08-21T14:06:00;101038.31;;;31.55;57.55
74474;BME280;62922;-6.168;106.796;2022-08-21T14:08:31;101009.88;;;31.34;57.51
74474;BME280;62922;-6.168;106.796;2022-08-21T14:11:02;101100.72;;;31.79;57.60
74474;BME280;62922;-6.168;106.796;2022-08-21T14:13:42;101088.91;;;31.77;57.31
74474;BME280;62922;-6.168;106.796;2022-08-21T14:21:25;101066.66;;;31.50;57.52
74474;BME280;62922;-6.168;106.796;2022-08-21T14:29:26;101050.75;;;31.37;58.06
74474;BME280;62922;-6.168;106.796;2022-08-21T14:31:58;101100.19;;;31.60;57.76
74474;BME280;62922;-6.168;106.796;2022-08-21T14:34:26;101026.44;;;31.10;58.28
74474;BME280;62922;-6.168;106.796;2022-08-21T14:36:55;101015.66;;;31.04;58.00
74474;BME280;62922;-6.168;106.796;2022-08-21T14:39:24;101104.50;;;31.57;58.29